createdAt,value
2022-10-15T00:00:24.951Z,78.92
2022-10-15T00:02:51.933Z,79.23
2022-10-15T00:05:19.089Z,79.06
2022-10-15T00:07:46.047Z,79.12
2022-10-15T00:10:13.245Z,79.15
2022-10-15T00:12:41.443Z,79.77
2022-10-15T00:15:10.123Z,79.28
2022-10-15T00:17:37.909Z,79.40
2022-10-15T00:20:08.600Z,78.57
2022-10-15T00:22:36.035Z,79.46
2022-10-15T00:25:03.192Z,79.53
2022-10-15T00:27:30.141Z,79.41
2022-10-15T00:29:57.229Z,79.73
2022-10-15T00:32:24.503Z,79.88
2022-10-15T00:34:51.663Z,80.28
2022-10-15T00:37:18.704Z,79.77
2022-10-15T00:39:45.743Z,79.96
2022-10-15T00:42:13.092Z,79.93
2022-10-15T00:44:50.691Z,80.35
2022-10-15T00:47:26.697Z,80.44
2022-10-15T00:49:56.958Z,80.35
2022-10-15T00:52:30.466Z,79.77
2022-10-15T00:55:06.373Z,80.41
2022-10-15T00:57:34.340Z,80.32
2022-10-15T01:00:06.598Z,80.36
2022-10-15T01:02:33.999Z,80.29
2022-10-15T01:05:01.462Z,79.28
2022-10-15T01:07:28.566Z,80.03
2022-10-15T01:09:55.651Z,80.09
2022-10-15T01:12:26.059Z,80.09
2022-10-15T01:15:31.979Z,80.16
2022-10-15T01:18:16.147Z,79.85
2022-10-15T01:21:08.672Z,79.89
2022-10-15T01:23:52.470Z,79.81
2022-10-15T01:26:30.258Z,79.83
2022-10-15T01:29:22.169Z,79.68
2022-10-15T01:32:09.035Z,79.87
2022-10-15T01:34:51.363Z,79.88
2022-10-15T01:37:24.479Z,79.83
2022-10-15T01:39:56.450Z,79.62
2022-10-15T01:42:31.451Z,79.75
2022-10-15T01:45:04.130Z,79.41
2022-10-15T01:47:43.865Z,79.66
2022-10-15T01:50:13.502Z,79.47
2022-10-15T01:52:42.222Z,79.99
2022-10-15T01:55:14.295Z,80.17
2022-10-15T01:57:44.549Z,79.56
2022-10-15T02:00:12.906Z,78.78
2022-10-15T02:02:40.067Z,79.36
2022-10-15T02:05:10.685Z,79.80
2022-10-15T02:07:48.252Z,79.77
2022-10-15T02:10:50.674Z,79.67
2022-10-15T02:13:46.715Z,79.95
2022-10-15T02:16:55.274Z,79.64
2022-10-15T02:19:44.589Z,79.76
2022-10-15T02:22:35.055Z,79.77
2022-10-15T02:25:14.662Z,79.81
2022-10-15T02:27:43.392Z,79.69
2022-10-15T02:30:11.852Z,79.59
2022-10-15T02:32:41.823Z,79.63
2022-10-15T02:35:11.801Z,79.57
2022-10-15T02:37:43.321Z,79.54
2022-10-15T02:40:10.930Z,79.74
2022-10-15T02:42:38.099Z,79.83
2022-10-15T02:45:05.499Z,79.04
2022-10-15T02:47:33.090Z,79.21
2022-10-15T02:50:00.136Z,79.06
2022-10-15T02:52:27.298Z,79.64
2022-10-15T02:54:56.665Z,78.93
2022-10-15T02:57:23.731Z,79.44
2022-10-15T02:59:50.899Z,79.43
2022-10-15T03:02:19.332Z,78.77
2022-10-15T03:04:46.828Z,78.65
2022-10-15T03:07:14.586Z,79.02
2022-10-15T03:09:41.446Z,78.82
2022-10-15T03:12:08.883Z,78.97
2022-10-15T03:14:36.046Z,79.31
2022-10-15T03:17:03.034Z,78.39
2022-10-15T03:19:30.077Z,79.68
2022-10-15T03:21:57.142Z,79.02
2022-10-15T03:24:24.134Z,79.40
2022-10-15T03:26:57.012Z,79.45
2022-10-15T03:29:24.167Z,78.66
2022-10-15T03:31:51.178Z,78.90
2022-10-15T03:34:18.523Z,79.04
2022-10-15T03:36:45.792Z,79.47
2022-10-15T03:39:19.940Z,78.65
2022-10-15T03:41:47.711Z,78.71
2022-10-15T03:44:23.721Z,79.83
2022-10-15T03:46:50.975Z,79.05
2022-10-15T03:49:30.297Z,78.08
2022-10-15T03:51:57.467Z,78.86
2022-10-15T03:54:26.919Z,79.37
2022-10-15T03:56:53.865Z,78.86
2022-10-15T03:59:24.749Z,79.76
2022-10-15T04:01:56.165Z,80.01
2022-10-15T04:04:23.146Z,79.39
2022-10-15T04:06:50.079Z,79.93
2022-10-15T04:09:16.978Z,79.66
2022-10-15T04:11:43.998Z,79.31
2022-10-15T04:14:11.008Z,79.27
2022-10-15T04:16:38.086Z,79.39
2022-10-15T04:19:10.244Z,79.83
2022-10-15T04:21:41.056Z,79.17
2022-10-15T04:24:10.511Z,79.21
2022-10-15T04:26:37.932Z,79.62
2022-10-15T04:29:11.070Z,79.06
2022-10-15T04:31:38.076Z,78.54
2022-10-15T04:34:05.456Z,79.31
2022-10-15T04:36:32.397Z,79.54
2022-10-15T04:38:59.413Z,79.49
2022-10-15T04:41:26.519Z,79.78
2022-10-15T04:43:53.579Z,79.70
2022-10-15T04:46:23.096Z,78.90
2022-10-15T04:48:50.776Z,79.85
2022-10-15T04:51:20.324Z,79.37
2022-10-15T04:53:47.754Z,80.03
2022-10-15T04:56:18.310Z,79.49
2022-10-15T04:58:46.970Z,79.31
2022-10-15T05:01:19.993Z,79.47
2022-10-15T05:03:49.048Z,79.64
2022-10-15T05:06:21.825Z,80.10
2022-10-15T05:08:49.979Z,78.89
2022-10-15T05:11:20.144Z,79.38
2022-10-15T05:13:47.377Z,79.58
2022-10-15T05:16:17.372Z,79.56
2022-10-15T05:18:47.867Z,79.47
2022-10-15T05:21:15.415Z,80.20
2022-10-15T05:23:42.642Z,79.19
2022-10-15T05:26:13.923Z,78.91
2022-10-15T05:28:41.508Z,79.46
2022-10-15T05:31:16.041Z,78.87
2022-10-15T05:33:46.323Z,79.73
2022-10-15T05:36:19.851Z,79.89
2022-10-15T05:38:55.707Z,78.72
2022-10-15T05:41:26.639Z,79.66
2022-10-15T05:43:56.005Z,79.81
2022-10-15T05:46:23.712Z,80.27
2022-10-15T05:48:56.064Z,80.29
2022-10-15T05:51:24.162Z,80.46
2022-10-15T05:53:58.498Z,80.34
2022-10-15T05:56:26.157Z,80.60
2022-10-15T05:58:53.172Z,80.35
2022-10-15T06:01:20.898Z,80.26
2022-10-15T06:03:48.347Z,79.71
2022-10-15T06:06:18.045Z,80.22
2022-10-15T06:08:45.830Z,80.18
2022-10-15T06:11:13.072Z,79.37
2022-10-15T06:13:41.397Z,79.23
2022-10-15T06:16:09.672Z,79.42
2022-10-15T06:18:37.579Z,79.50
2022-10-15T06:21:06.092Z,79.37
2022-10-15T06:23:33.181Z,79.39
2022-10-15T06:26:08.358Z,80.25
2022-10-15T06:28:37.286Z,80.07
2022-10-15T06:31:05.244Z,79.97
2022-10-15T06:33:32.980Z,79.89
2022-10-15T06:36:10.910Z,79.64
2022-10-15T06:38:39.633Z,79.50
2022-10-15T06:41:08.165Z,80.04
2022-10-15T06:43:35.660Z,79.94
2022-10-15T06:46:04.730Z,79.63
2022-10-15T06:48:32.998Z,79.26
2022-10-15T06:51:01.325Z,79.30
2022-10-15T06:53:29.923Z,79.63
2022-10-15T06:56:02.032Z,79.52
2022-10-15T06:58:29.905Z,79.58
2022-10-15T07:01:02.452Z,79.41
2022-10-15T07:03:29.779Z,80.14
2022-10-15T07:05:57.056Z,79.70
2022-10-15T07:08:26.009Z,79.16
2022-10-15T07:10:52.932Z,79.31
2022-10-15T07:13:19.883Z,78.89
2022-10-15T07:15:49.883Z,78.79
2022-10-15T07:18:16.856Z,78.54
2022-10-15T07:20:43.780Z,79.04
2022-10-15T07:23:13.221Z,78.80
2022-10-15T07:25:42.400Z,79.14
2022-10-15T07:28:09.442Z,79.05
2022-10-15T07:30:36.451Z,78.27
2022-10-15T07:33:06.135Z,78.25
2022-10-15T07:35:34.399Z,78.40
2022-10-15T07:38:02.437Z,78.16
2022-10-15T07:40:29.821Z,77.73
2022-10-15T07:43:01.321Z,78.22
2022-10-15T07:45:28.843Z,77.71
2022-10-15T07:47:59.136Z,77.53
2022-10-15T07:50:29.198Z,77.41
2022-10-15T07:52:59.482Z,77.13
2022-10-15T07:55:26.450Z,77.00
2022-10-15T07:57:59.940Z,77.03
2022-10-15T08:00:27.446Z,77.65
2022-10-15T08:02:54.604Z,77.87
2022-10-15T08:05:21.567Z,77.61
2022-10-15T08:07:48.668Z,78.07
2022-10-15T08:10:16.400Z,78.38
2022-10-15T08:12:43.382Z,77.58
2022-10-15T08:15:10.884Z,76.84
2022-10-15T08:17:38.013Z,77.45
2022-10-15T08:20:05.510Z,77.26
2022-10-15T08:22:36.893Z,77.02
2022-10-15T08:25:04.654Z,76.81
2022-10-15T08:27:31.763Z,76.42
2022-10-15T08:29:58.710Z,76.58
2022-10-15T08:32:26.027Z,76.72
2022-10-15T08:34:53.093Z,77.39
2022-10-15T08:37:20.105Z,77.08
2022-10-15T08:39:47.465Z,76.74
2022-10-15T08:42:36.637Z,76.50
2022-10-15T08:45:08.360Z,76.49
2022-10-15T08:47:40.605Z,75.70
2022-10-15T08:50:18.043Z,75.27
2022-10-15T08:52:52.152Z,74.59
2022-10-15T08:55:21.448Z,75.10
2022-10-15T08:57:58.262Z,74.75
2022-10-15T09:00:31.081Z,74.08
2022-10-15T09:03:04.278Z,73.99
2022-10-15T09:05:49.081Z,73.87
2022-10-15T09:08:46.793Z,74.60
2022-10-15T09:11:16.797Z,74.26
2022-10-15T09:13:46.440Z,73.75
2022-10-15T09:16:17.877Z,73.53
2022-10-15T09:18:48.523Z,73.20
2022-10-15T09:21:16.212Z,72.46
2022-10-15T09:23:44.556Z,72.80
2022-10-15T09:26:56.859Z,72.25
2022-10-15T09:29:26.544Z,72.02
2022-10-15T09:32:15.244Z,71.18
2022-10-15T09:34:48.944Z,70.42
2022-10-15T09:37:33.228Z,69.40
2022-10-15T09:40:37.373Z,69.97
2022-10-15T09:43:06.304Z,70.61
2022-10-15T09:45:33.793Z,70.30
2022-10-15T09:48:14.286Z,70.39
2022-10-15T09:50:47.839Z,71.06
2022-10-15T09:53:27.490Z,71.03
2022-10-15T09:56:15.511Z,70.95
2022-10-15T09:58:59.294Z,70.69
2022-10-15T10:01:32.017Z,70.81
2022-10-15T10:04:11.307Z,70.86
2022-10-15T10:07:09.508Z,70.80
2022-10-15T10:09:56.828Z,69.78
2022-10-15T10:12:29.226Z,70.41
2022-10-15T10:15:02.831Z,70.55
2022-10-15T10:17:30.911Z,69.78
2022-10-15T10:20:10.340Z,69.43
2022-10-15T10:22:51.508Z,69.53
2022-10-15T10:25:33.262Z,69.74
2022-10-15T10:28:12.044Z,69.83
2022-10-15T10:31:01.239Z,69.43
2022-10-15T10:33:52.640Z,69.60
2022-10-15T10:36:34.647Z,69.50
2022-10-15T10:39:01.587Z,70.11
2022-10-15T10:41:53.659Z,69.51
2022-10-15T10:44:36.694Z,69.15
2022-10-15T10:47:08.924Z,68.61
2022-10-15T10:49:45.037Z,68.70
2022-10-15T10:52:21.188Z,68.40
2022-10-15T10:55:10.302Z,67.92
2022-10-15T10:57:45.766Z,67.84
2022-10-15T11:00:21.396Z,68.04
2022-10-15T11:02:48.996Z,67.92
2022-10-15T11:05:25.317Z,68.05
2022-10-15T11:08:29.577Z,66.69
2022-10-15T11:11:17.818Z,65.97
2022-10-15T11:13:59.061Z,66.18
2022-10-15T11:17:01.497Z,65.80
2022-10-15T11:20:05.733Z,64.54
2022-10-15T11:23:13.409Z,64.09
2022-10-15T11:26:13.648Z,63.47
2022-10-15T11:29:18.413Z,63.65
2022-10-15T11:32:02.724Z,64.20
2022-10-15T11:34:58.862Z,63.12
2022-10-15T11:37:31.455Z,63.87
2022-10-15T11:40:04.443Z,63.89
2022-10-15T11:42:37.974Z,63.36
2022-10-15T11:45:29.514Z,62.83
2022-10-15T11:48:05.798Z,62.83
2022-10-15T11:50:59.365Z,62.17
2022-10-15T11:53:35.140Z,63.16
2022-10-15T11:56:13.689Z,63.06
2022-10-15T11:58:48.295Z,61.96
2022-10-15T12:01:25.080Z,62.35
2022-10-15T12:04:18.605Z,61.06
2022-10-15T12:06:51.123Z,61.65
2022-10-15T12:09:29.315Z,61.47
2022-10-15T12:12:03.610Z,60.71
2022-10-15T12:15:08.682Z,61.53
2022-10-15T12:17:44.688Z,61.75
2022-10-15T12:20:18.263Z,61.09
2022-10-15T12:22:48.202Z,61.27
2022-10-15T12:25:33.970Z,60.20
2022-10-15T12:28:05.390Z,60.04
2022-10-15T12:30:38.043Z,59.90
2022-10-15T12:33:25.056Z,59.92
2022-10-15T12:35:57.897Z,59.00
2022-10-15T12:38:40.987Z,59.66
2022-10-15T12:41:13.253Z,59.00
2022-10-15T12:43:54.254Z,59.65
2022-10-15T12:46:21.124Z,60.09
2022-10-15T12:48:48.351Z,60.03
2022-10-15T12:51:24.479Z,59.67
2022-10-15T12:53:54.797Z,60.33
2022-10-15T12:56:24.666Z,60.90
2022-10-15T12:58:56.053Z,60.05
2022-10-15T13:01:23.012Z,59.58
2022-10-15T13:03:52.783Z,60.75
2022-10-15T13:06:22.959Z,60.77
2022-10-15T13:08:51.635Z,60.37
2022-10-15T13:11:30.359Z,60.01
2022-10-15T13:14:20.285Z,60.58
2022-10-15T13:16:48.950Z,61.55
2022-10-15T13:19:34.832Z,61.04
2022-10-15T13:22:04.102Z,62.04
2022-10-15T13:24:40.682Z,61.95
2022-10-15T13:27:30.631Z,62.40
2022-10-15T13:29:57.554Z,62.45
2022-10-15T13:32:26.820Z,62.84
2022-10-15T13:34:56.281Z,62.69
2022-10-15T13:37:36.217Z,62.99
2022-10-15T13:40:07.929Z,62.59
2022-10-15T13:42:36.008Z,63.35
2022-10-15T13:45:26.385Z,63.07
2022-10-15T13:47:55.321Z,63.34
2022-10-15T13:50:28.231Z,63.52
2022-10-15T13:53:23.384Z,63.39
2022-10-15T13:55:56.599Z,63.80
2022-10-15T13:58:29.647Z,63.95
2022-10-15T14:00:59.146Z,64.13
2022-10-15T14:03:34.057Z,64.16
2022-10-15T14:06:32.213Z,64.98
2022-10-15T14:09:01.904Z,64.87
2022-10-15T14:11:30.382Z,65.06
2022-10-15T14:13:59.275Z,65.17
2022-10-15T14:16:31.378Z,63.90
2022-10-15T14:19:12.229Z,64.83
2022-10-15T14:21:43.391Z,63.79
2022-10-15T14:24:16.991Z,64.47
2022-10-15T14:26:44.798Z,64.49
2022-10-15T14:29:23.015Z,64.62
2022-10-15T14:31:50.202Z,64.39
2022-10-15T14:34:40.270Z,64.47
2022-10-15T14:37:43.086Z,63.90
2022-10-15T14:40:10.268Z,64.78
2022-10-15T14:42:42.550Z,64.75
2022-10-15T14:45:12.458Z,64.98
2022-10-15T14:47:39.914Z,64.50
2022-10-15T14:50:07.437Z,64.03
2022-10-15T14:52:37.654Z,64.33
2022-10-15T14:55:31.998Z,63.57
2022-10-15T14:58:01.818Z,63.78
2022-10-15T15:00:34.607Z,64.63
2022-10-15T15:03:07.179Z,65.31
2022-10-15T15:05:48.435Z,65.81
2022-10-15T15:08:16.052Z,66.12
2022-10-15T15:10:44.718Z,66.17
2022-10-15T15:13:20.206Z,66.12
2022-10-15T15:15:47.626Z,66.20
2022-10-15T15:18:14.684Z,66.27
2022-10-15T15:20:44.046Z,66.67
2022-10-15T15:23:18.058Z,67.19
2022-10-15T15:25:45.116Z,67.26
2022-10-15T15:28:20.130Z,67.78
2022-10-15T15:30:55.536Z,67.69
2022-10-15T15:33:22.525Z,68.01
2022-10-15T15:36:00.497Z,68.36
2022-10-15T15:38:31.608Z,68.75
2022-10-15T15:41:12.530Z,68.70
2022-10-15T15:43:39.651Z,69.13
2022-10-15T15:46:06.998Z,68.82
2022-10-15T15:48:34.117Z,68.84
2022-10-15T15:51:07.070Z,68.60
2022-10-15T15:53:35.591Z,68.97
2022-10-15T15:56:02.654Z,69.09
2022-10-15T15:58:30.057Z,68.63
2022-10-15T16:00:57.160Z,68.88
2022-10-15T16:03:24.184Z,69.13
2022-10-15T16:08:38.994Z,69.09
2022-10-15T16:11:07.569Z,69.30
2022-10-15T16:13:35.324Z,69.06
2022-10-15T16:16:02.695Z,69.29
2022-10-15T16:18:30.111Z,69.39
2022-10-15T16:20:57.213Z,69.62
2022-10-15T16:23:24.257Z,69.39
2022-10-15T16:25:51.221Z,69.49
2022-10-15T16:28:21.262Z,69.76
2022-10-15T16:30:48.210Z,69.00
2022-10-15T16:33:18.023Z,70.19
2022-10-15T16:35:45.005Z,69.98
2022-10-15T16:38:11.929Z,69.62
2022-10-15T16:40:39.313Z,70.09
2022-10-15T16:43:06.264Z,70.11
2022-10-15T16:45:33.793Z,70.52
2022-10-15T16:48:00.748Z,70.53
2022-10-15T16:50:27.735Z,70.48
2022-10-15T16:52:54.857Z,69.80
2022-10-15T16:55:21.784Z,70.47
2022-10-15T16:57:48.746Z,70.04
2022-10-15T17:00:15.731Z,70.49
2022-10-15T17:02:42.692Z,70.38
2022-10-15T17:05:09.880Z,70.06
2022-10-15T17:07:36.818Z,70.32
2022-10-15T17:10:04.567Z,70.45
2022-10-15T17:12:31.543Z,70.36
2022-10-15T17:14:58.479Z,70.62
2022-10-15T17:17:25.622Z,70.62
2022-10-15T17:19:52.696Z,70.26
2022-10-15T17:22:21.430Z,69.89
2022-10-15T17:24:49.887Z,70.52
2022-10-15T17:27:18.124Z,70.38
2022-10-15T17:29:45.593Z,69.92
2022-10-15T17:32:12.540Z,70.01
2022-10-15T17:34:39.481Z,69.86
2022-10-15T17:37:06.456Z,69.92
2022-10-15T17:39:33.845Z,70.00
2022-10-15T17:42:00.754Z,69.86
2022-10-15T17:44:27.869Z,69.86
2022-10-15T17:46:54.809Z,69.70
2022-10-15T17:49:21.767Z,70.02
2022-10-15T17:51:48.964Z,70.54
2022-10-15T17:54:16.214Z,71.72
2022-10-15T17:56:43.412Z,71.72
2022-10-15T17:59:12.616Z,71.67
2022-10-15T18:01:58.897Z,71.88
2022-10-15T18:04:28.474Z,71.92
2022-10-15T18:06:55.484Z,71.44
2022-10-15T18:09:22.430Z,72.35
2022-10-15T18:11:49.561Z,72.00
2022-10-15T18:14:16.608Z,71.56
2022-10-15T18:16:44.353Z,71.90
2022-10-15T18:19:11.497Z,72.32
2022-10-15T18:21:38.674Z,71.74
2022-10-15T18:24:06.027Z,72.29
2022-10-15T18:26:33.013Z,71.90
2022-10-15T18:29:00.057Z,71.60
2022-10-15T18:31:27.157Z,72.02
2022-10-15T18:33:56.145Z,72.23
2022-10-15T18:36:25.073Z,72.08
2022-10-15T18:38:55.674Z,71.69
2022-10-15T18:41:28.765Z,71.61
2022-10-15T18:44:03.754Z,71.53
2022-10-15T18:46:31.501Z,71.80
2022-10-15T18:48:58.929Z,71.68
2022-10-15T18:51:26.310Z,71.88
2022-10-15T18:53:53.658Z,71.69
2022-10-15T18:56:22.071Z,72.01
2022-10-15T18:58:50.287Z,72.27
2022-10-15T19:01:37.503Z,72.08
2022-10-15T19:04:07.610Z,72.39
2022-10-15T19:06:38.328Z,72.56
2022-10-15T19:09:07.290Z,72.31
2022-10-15T19:11:35.746Z,72.75
2022-10-15T19:14:03.198Z,72.32
2022-10-15T19:16:30.356Z,72.13
2022-10-15T19:18:57.491Z,72.28
2022-10-15T19:21:25.142Z,72.27
2022-10-15T19:23:52.145Z,72.05
2022-10-15T19:26:19.295Z,71.66
2022-10-15T19:28:47.319Z,71.47
2022-10-15T19:31:24.774Z,71.52
2022-10-15T19:33:51.932Z,71.27
2022-10-15T19:36:24.676Z,70.92
2022-10-15T19:38:51.813Z,70.70
2022-10-15T19:41:19.590Z,70.83
2022-10-15T19:43:46.847Z,70.91
2022-10-15T19:46:14.820Z,70.84
2022-10-15T19:48:42.244Z,70.58
2022-10-15T19:51:09.482Z,70.40
2022-10-15T19:53:36.743Z,70.30
2022-10-15T19:56:10.437Z,70.95
2022-10-15T19:58:39.470Z,70.97
2022-10-15T20:01:06.436Z,70.24
2022-10-15T20:03:37.263Z,70.51
2022-10-15T20:06:06.603Z,70.50
2022-10-15T20:08:33.961Z,70.68
2022-10-15T20:11:00.878Z,70.53
2022-10-15T20:13:27.818Z,70.13
2022-10-15T20:15:54.950Z,69.89
2022-10-15T20:18:22.432Z,70.28
2022-10-15T20:20:49.468Z,70.25
2022-10-15T20:23:18.011Z,70.07
2022-10-15T20:25:45.992Z,69.52
2022-10-15T20:28:15.074Z,69.38
2022-10-15T20:30:42.369Z,70.01
2022-10-15T20:33:10.639Z,69.30
2022-10-15T20:35:38.867Z,70.15
2022-10-15T20:38:07.315Z,69.59
2022-10-15T20:40:35.496Z,69.79
2022-10-15T20:43:02.485Z,69.62
2022-10-15T20:45:38.620Z,70.01
2022-10-15T20:48:07.799Z,70.00
2022-10-15T20:50:36.224Z,70.04
2022-10-15T20:53:03.694Z,69.71
2022-10-15T20:55:31.179Z,70.26
2022-10-15T20:57:58.233Z,70.34
2022-10-15T21:00:25.178Z,70.23
2022-10-15T21:02:52.188Z,69.97
2022-10-15T21:05:19.152Z,70.05
2022-10-15T21:07:46.129Z,70.47
2022-10-15T21:10:13.187Z,70.23
2022-10-15T21:12:40.158Z,70.45
2022-10-15T21:15:07.792Z,69.87
2022-10-15T21:17:34.916Z,70.67
2022-10-15T21:20:02.025Z,71.17
2022-10-15T21:22:28.970Z,70.85
2022-10-15T21:24:55.922Z,70.73
2022-10-15T21:27:23.145Z,70.87
2022-10-15T21:29:50.339Z,71.02
2022-10-15T21:32:17.484Z,70.75
2022-10-15T21:34:44.721Z,71.02
2022-10-15T21:37:11.970Z,70.87
2022-10-15T21:39:38.971Z,71.13
2022-10-15T21:42:06.042Z,71.13
2022-10-15T21:44:33.851Z,71.14
2022-10-15T21:47:00.849Z,71.23
2022-10-15T21:49:27.833Z,71.46
2022-10-15T21:51:55.016Z,71.59
2022-10-15T21:54:21.959Z,71.11
2022-10-15T21:56:48.880Z,71.13
2022-10-15T21:59:16.061Z,71.19
2022-10-15T22:01:43.109Z,71.05
2022-10-15T22:04:11.233Z,71.42
2022-10-15T22:06:40.523Z,71.29
2022-10-15T22:09:08.520Z,71.32
2022-10-15T22:11:37.932Z,71.27
2022-10-15T22:14:07.714Z,71.23
2022-10-15T22:16:36.904Z,71.49
2022-10-15T22:19:05.107Z,71.16
2022-10-15T22:21:36.665Z,70.73
2022-10-15T22:24:13.906Z,70.37
2022-10-15T22:26:44.413Z,71.43
2022-10-15T22:29:26.449Z,71.08
2022-10-15T22:31:54.312Z,71.15
2022-10-15T22:34:22.663Z,70.92
2022-10-15T22:36:51.298Z,70.85
2022-10-15T22:39:19.412Z,70.62
2022-10-15T22:41:47.621Z,70.70
2022-10-15T22:44:20.330Z,71.11
2022-10-15T22:46:49.919Z,70.69
2022-10-15T22:49:22.529Z,70.81
2022-10-15T22:51:50.770Z,70.42
2022-10-15T22:54:19.267Z,69.96
2022-10-15T22:56:47.605Z,70.49
2022-10-15T22:59:15.756Z,70.54
2022-10-15T23:01:43.069Z,70.37
2022-10-15T23:04:12.899Z,70.33
2022-10-15T23:06:39.897Z,70.04
2022-10-15T23:09:08.509Z,70.21
2022-10-15T23:11:38.291Z,69.84
2022-10-15T23:14:08.554Z,69.38
2022-10-15T23:16:38.199Z,69.61
2022-10-15T23:19:08.147Z,69.60
2022-10-15T23:21:42.397Z,69.16
2022-10-15T23:24:09.761Z,69.11
2022-10-15T23:26:38.234Z,69.34
2022-10-15T23:29:07.652Z,69.38
2022-10-15T23:31:36.252Z,68.80
2022-10-15T23:34:04.846Z,69.25
2022-10-15T23:36:33.337Z,69.13
2022-10-15T23:39:04.071Z,69.15
2022-10-15T23:41:31.437Z,68.78
2022-10-15T23:43:58.802Z,69.09
2022-10-15T23:46:26.155Z,69.03
2022-10-15T23:48:53.065Z,69.39
2022-10-15T23:51:23.050Z,69.85
2022-10-15T23:53:50.707Z,69.72
2022-10-15T23:56:18.479Z,69.98
2022-10-15T23:58:53.832Z,70.21
